Time;durP1;ratioP1;P1;durP2;ratioP2;P2;SDS_P1;SDS_P2;PMS_P1;PMS_P2;Temp;Humidity;BMP_temperature;BMP_pressure;BME280_temperature;BME280_humidity;BME280_pressure;Samples;Min_cycle;Max_cycle;Signal;HPM_P1;HPM_P2
2021/10/24 00:02:14;;;;;;;10.33;6.93;;;9.70;99.90;;;;;;6212486;22;20277;-86
2021/10/24 00:04:39;;;;;;;10.33;6.70;;;9.60;99.90;;;;;;6237461;22;20476;-86
2021/10/24 00:07:06;;;;;;;9.90;6.57;;;9.60;99.90;;;;;;6264237;22;20238;-86
2021/10/24 00:09:31;;;;;;;10.80;7.90;;;9.60;99.90;;;;;;6206669;22;20203;-86
2021/10/24 00:11:57;;;;;;;14.17;7.40;;;9.50;99.90;;;;;;6208078;23;20189;-86
2021/10/24 00:14:23;;;;;;;9.73;5.47;;;9.50;99.90;;;;;;6235169;22;20261;-86
2021/10/24 00:16:49;;;;;;;12.70;6.83;;;9.50;99.90;;;;;;6184425;23;20459;-86
2021/10/24 00:19:14;;;;;;;9.97;5.90;;;9.40;99.90;;;;;;6235145;22;20212;-86
2021/10/24 00:21:40;;;;;;;11.30;6.50;;;9.40;99.90;;;;;;6234336;22;20574;-86
2021/10/24 00:24:06;;;;;;;10.53;6.47;;;9.30;99.90;;;;;;6210073;23;20185;-86
2021/10/24 00:26:32;;;;;;;10.47;5.90;;;9.30;99.90;;;;;;6235719;22;20224;-86
2021/10/24 00:28:57;;;;;;;13.03;8.60;;;9.20;99.90;;;;;;6209413;23;20267;-86
2021/10/24 00:31:24;;;;;;;11.13;5.90;;;9.20;99.90;;;;;;6208657;23;20185;-86
2021/10/24 00:33:50;;;;;;;13.43;6.97;;;9.10;99.90;;;;;;6235644;22;20228;-87
2021/10/24 00:36:15;;;;;;;11.33;6.50;;;9.10;99.90;;;;;;6235112;23;20157;-87
2021/10/24 00:38:41;;;;;;;16.17;6.23;;;9.00;99.90;;;;;;6209273;23;20198;-86
2021/10/24 00:41:07;;;;;;;9.77;5.93;;;9.00;99.90;;;;;;6234722;22;20196;-86
2021/10/24 00:43:33;;;;;;;13.13;6.70;;;8.90;99.90;;;;;;6234407;22;20205;-86
2021/10/24 00:45:58;;;;;;;11.90;6.97;;;8.90;99.90;;;;;;6234270;22;20415;-87
2021/10/24 00:48:24;;;;;;;8.67;5.67;;;8.80;99.90;;;;;;6234923;22;20215;-86
2021/10/24 00:50:51;;;;;;;11.70;6.20;;;8.80;99.90;;;;;;6234935;23;20153;-86
2021/10/24 00:53:17;;;;;;;11.07;5.97;;;8.80;99.90;;;;;;6234209;22;20437;-86
2021/10/24 00:55:44;;;;;;;7.27;5.60;;;8.70;99.90;;;;;;6235707;22;20206;-85
2021/10/24 00:58:13;;;;;;;13.20;4.97;;;8.70;99.90;;;;;;6233866;22;20244;-86
2021/10/24 01:00:38;;;;;;;10.13;6.83;;;8.60;99.90;;;;;;6234260;22;20296;-87
2021/10/24 01:03:04;;;;;;;6.33;4.87;;;8.60;99.90;;;;;;6234867;23;20185;-86
2021/10/24 01:05:31;;;;;;;13.90;6.07;;;8.50;99.90;;;;;;6234457;22;20206;-86
2021/10/24 01:07:59;;;;;;;6.50;4.30;;;8.40;99.90;;;;;;6235613;22;20555;-87
2021/10/24 01:10:25;;;;;;;9.80;5.13;;;8.40;99.90;;;;;;6265797;22;20227;-87
2021/10/24 01:12:51;;;;;;;9.47;5.00;;;8.40;99.90;;;;;;6266386;22;20200;-86
2021/10/24 01:15:18;;;;;;;6.57;4.40;;;8.30;99.90;;;;;;6240074;22;20459;-86
2021/10/24 01:17:45;;;;;;;7.87;4.80;;;8.30;99.90;;;;;;6239597;22;20189;-85
2021/10/24 01:20:17;;;;;;;8.87;5.03;;;8.30;99.90;;;;;;6213822;22;20542;-86
2021/10/24 01:22:43;;;;;;;9.23;5.10;;;8.30;99.90;;;;;;6239859;22;20196;-87
2021/10/24 01:25:08;;;;;;;7.33;5.30;;;8.40;99.90;;;;;;6213665;22;20208;-85
2021/10/24 01:27:36;;;;;;;5.37;4.83;;;8.40;99.90;;;;;;6266011;22;20591;-87
2021/10/24 01:30:05;;;;;;;4.53;4.07;;;8.40;99.90;;;;;;6215114;22;20200;-87
2021/10/24 01:32:32;;;;;;;7.20;4.47;;;8.40;99.90;;;;;;6266525;22;20203;-87
2021/10/24 01:34:59;;;;;;;12.80;5.60;;;8.40;99.90;;;;;;6189008;22;20193;-87
2021/10/24 01:37:39;;;;;;;5.70;4.90;;;8.50;99.90;;;;;;6265628;22;20581;-86
2021/10/24 01:40:11;;;;;;;5.37;4.50;;;8.60;99.90;;;;;;6265490;22;20180;-87
2021/10/24 01:42:56;;;;;;;3.93;3.47;;;8.60;99.90;;;;;;6238859;22;20172;-88
2021/10/24 01:45:27;;;;;;;7.30;4.30;;;8.70;99.90;;;;;;6239216;22;20245;-87
2021/10/24 01:47:53;;;;;;;5.67;3.27;;;8.70;99.90;;;;;;6266563;22;20149;-87
2021/10/24 01:50:19;;;;;;;4.53;3.53;;;8.70;99.90;;;;;;6213508;22;20669;-87
2021/10/24 01:52:47;;;;;;;5.33;2.83;;;8.80;99.90;;;;;;6265327;22;20193;-87
2021/10/24 01:55:14;;;;;;;5.50;3.70;;;8.80;99.90;;;;;;6214105;22;20284;-87
2021/10/24 01:57:42;;;;;;;8.30;4.57;;;8.80;99.90;;;;;;6188796;22;20212;-87
2021/10/24 02:00:08;;;;;;;5.80;4.20;;;8.80;99.90;;;;;;6239471;22;20218;-87
2021/10/24 02:02:34;;;;;;;8.20;4.33;;;8.80;99.90;;;;;;6238533;22;20192;-87
2021/10/24 02:05:00;;;;;;;7.20;4.13;;;8.80;99.90;;;;;;6265163;22;20250;-87
2021/10/24 02:07:26;;;;;;;6.27;3.77;;;8.90;99.90;;;;;;6238654;22;20615;-87
2021/10/24 02:09:52;;;;;;;4.87;3.27;;;8.80;99.90;;;;;;6213620;22;20203;-86
2021/10/24 02:12:17;;;;;;;9.90;4.07;;;8.90;99.90;;;;;;6265597;22;20271;-87
2021/10/24 02:14:43;;;;;;;6.80;5.07;;;8.90;99.90;;;;;;6238930;22;20299;-87
2021/10/24 02:17:09;;;;;;;4.50;3.27;;;8.90;99.90;;;;;;6238389;22;20215;-88
2021/10/24 02:19:34;;;;;;;11.90;3.80;;;8.90;99.90;;;;;;6214110;22;20184;-87
2021/10/24 02:22:02;;;;;;;12.83;4.73;;;8.90;99.90;;;;;;6213285;22;20184;-86
2021/10/24 02:24:28;;;;;;;4.83;3.47;;;8.90;99.90;;;;;;6264987;22;20276;-86
2021/10/24 02:26:53;;;;;;;8.13;3.60;;;8.90;99.90;;;;;;6239376;22;20844;-87
2021/10/24 02:29:19;;;;;;;7.17;2.93;;;8.90;99.90;;;;;;6265753;22;20219;-87
2021/10/24 02:31:45;;;;;;;5.00;4.43;;;8.90;99.90;;;;;;6239048;22;20188;-86
2021/10/24 02:34:11;;;;;;;7.80;3.90;;;8.90;99.90;;;;;;6264955;22;20568;-87
2021/10/24 02:36:36;;;;;;;5.20;4.70;;;8.90;99.90;;;;;;6213820;22;20153;-86
2021/10/24 02:39:04;;;;;;;5.07;4.40;;;8.90;99.90;;;;;;6214118;22;20243;-87
2021/10/24 02:41:30;;;;;;;8.33;4.00;;;8.90;99.90;;;;;;6238276;22;20192;-87
2021/10/24 02:43:56;;;;;;;3.97;3.20;;;8.90;99.90;;;;;;6237879;22;20492;-86
2021/10/24 02:46:21;;;;;;;8.60;4.77;;;8.90;99.90;;;;;;6213328;22;20204;-86
2021/10/24 02:48:47;;;;;;;3.97;3.60;;;8.90;99.90;;;;;;6187996;22;20212;-87
2021/10/24 02:51:13;;;;;;;6.97;4.43;;;8.90;99.90;;;;;;6213867;22;20625;-87
2021/10/24 02:53:38;;;;;;;3.93;2.77;;;8.90;99.90;;;;;;6213126;22;20189;-87
2021/10/24 02:56:04;;;;;;;8.60;3.37;;;8.90;99.90;;;;;;6237611;22;20223;-87
2021/10/24 02:58:30;;;;;;;5.30;3.10;;;8.90;99.90;;;;;;6212993;22;20671;-87
2021/10/24 03:00:56;;;;;;;5.13;3.37;;;8.90;99.90;;;;;;6212570;22;20188;-86
2021/10/24 03:03:22;;;;;;;7.30;3.20;;;8.90;99.90;;;;;;6213086;22;20153;-86
2021/10/24 03:05:48;;;;;;;9.20;3.87;;;8.90;99.90;;;;;;6238456;22;20188;-86
2021/10/24 03:08:14;;;;;;;6.50;4.50;;;8.90;99.90;;;;;;6212472;22;20208;-86
2021/10/24 03:10:40;;;;;;;4.37;3.97;;;8.90;99.90;;;;;;6213424;22;20628;-85
2021/10/24 03:13:06;;;;;;;4.33;3.17;;;8.90;99.90;;;;;;6212766;22;20199;-87
2021/10/24 03:15:32;;;;;;;5.80;3.37;;;8.80;99.90;;;;;;6237864;22;20161;-86
2021/10/24 03:17:58;;;;;;;5.90;3.77;;;8.80;99.90;;;;;;6213711;22;20230;-86
2021/10/24 03:20:24;;;;;;;5.43;4.03;;;8.80;99.90;;;;;;6212717;22;20227;-87
2021/10/24 03:22:50;;;;;;;4.30;3.07;;;8.80;99.90;;;;;;6213373;22;20185;-87
2021/10/24 03:25:16;;;;;;;7.93;4.37;;;8.80;99.90;;;;;;6238072;22;20500;-86
2021/10/24 03:27:41;;;;;;;5.37;3.27;;;8.80;99.90;;;;;;6213053;22;20191;-86
2021/10/24 03:30:08;;;;;;;11.03;4.20;;;8.80;99.90;;;;;;6213056;22;20214;-86
2021/10/24 03:32:33;;;;;;;9.27;3.33;;;8.70;99.90;;;;;;6264638;22;20204;-86
2021/10/24 03:34:59;;;;;;;6.53;3.13;;;8.70;99.90;;;;;;6238952;22;20192;-86
2021/10/24 03:37:25;;;;;;;5.80;3.90;;;8.70;99.90;;;;;;6237842;22;20188;-87
2021/10/24 03:39:51;;;;;;;3.37;3.10;;;8.70;99.90;;;;;;6238147;22;20188;-85
2021/10/24 03:42:17;;;;;;;7.50;4.43;;;8.70;99.90;;;;;;6188571;22;20152;-85
2021/10/24 03:44:43;;;;;;;4.70;3.83;;;8.60;99.90;;;;;;6265089;22;20484;-86
2021/10/24 03:47:08;;;;;;;10.00;4.93;;;8.60;99.90;;;;;;6212819;22;20192;-86
2021/10/24 03:49:34;;;;;;;7.77;5.80;;;8.60;99.90;;;;;;6264551;22;20224;-87
2021/10/24 03:52:00;;;;;;;6.57;4.20;;;8.50;99.90;;;;;;6212328;22;20188;-88
2021/10/24 03:54:26;;;;;;;17.13;4.83;;;8.50;99.90;;;;;;6237590;22;20569;-87
2021/10/24 03:56:52;;;;;;;6.17;3.60;;;8.50;99.90;;;;;;6238594;22;20181;-87
2021/10/24 03:59:17;;;;;;;5.53;4.27;;;8.40;99.90;;;;;;6237787;22;20577;-87
2021/10/24 04:01:43;;;;;;;5.97;3.93;;;8.40;99.90;;;;;;6238603;22;20220;-86
2021/10/24 04:04:09;;;;;;;5.27;3.83;;;8.30;99.90;;;;;;6212387;22;20207;-87
2021/10/24 04:06:34;;;;;;;8.70;4.20;;;8.20;99.90;;;;;;6237589;22;20179;-88
2021/10/24 04:09:00;;;;;;;9.57;5.00;;;8.10;99.90;;;;;;6212484;22;20199;-87
2021/10/24 04:11:26;;;;;;;7.03;4.20;;;8.00;99.90;;;;;;6238075;22;20197;-87
2021/10/24 04:13:51;;;;;;;10.03;5.13;;;7.90;99.90;;;;;;6212370;22;20195;-87
2021/10/24 04:16:17;;;;;;;8.57;4.57;;;7.80;99.90;;;;;;6237840;22;20271;-87
2021/10/24 04:18:43;;;;;;;6.40;4.63;;;7.70;99.90;;;;;;6264679;22;20612;-86
2021/10/24 04:21:09;;;;;;;7.73;4.30;;;7.60;99.90;;;;;;6212974;22;20153;-86
2021/10/24 04:23:35;;;;;;;6.90;4.43;;;7.50;99.90;;;;;;6264453;22;20188;-86
2021/10/24 04:26:00;;;;;;;6.70;4.57;;;7.40;99.90;;;;;;6237966;22;20196;-87
2021/10/24 04:28:26;;;;;;;5.60;5.07;;;7.30;99.90;;;;;;6213005;22;20188;-86
2021/10/24 04:30:52;;;;;;;8.17;4.17;;;7.20;99.90;;;;;;6237516;22;20188;-87
2021/10/24 04:33:18;;;;;;;5.33;4.17;;;7.20;99.90;;;;;;6238860;22;20153;-86
2021/10/24 04:35:44;;;;;;;6.50;4.30;;;7.10;99.90;;;;;;6237442;22;20223;-86
2021/10/24 04:38:09;;;;;;;6.30;4.33;;;7.00;99.90;;;;;;6187460;22;20188;-87
2021/10/24 04:40:35;;;;;;;6.47;4.83;;;7.00;99.90;;;;;;6264581;22;20388;-87
2021/10/24 04:43:01;;;;;;;5.33;3.83;;;6.90;99.90;;;;;;6212245;22;20630;-87
2021/10/24 04:45:27;;;;;;;7.80;4.60;;;6.90;99.90;;;;;;6237908;22;20181;-87
2021/10/24 04:47:52;;;;;;;7.63;5.40;;;6.90;99.90;;;;;;6265311;22;20161;-87
2021/10/24 04:50:18;;;;;;;8.43;5.40;;;6.80;99.90;;;;;;6213152;22;20628;-87
2021/10/24 04:52:44;;;;;;;7.40;4.77;;;6.80;99.90;;;;;;6213130;22;20196;-86
2021/10/24 04:55:10;;;;;;;6.07;5.40;;;6.70;99.90;;;;;;6186962;22;20551;-87
2021/10/24 04:57:36;;;;;;;11.30;6.47;;;6.70;99.90;;;;;;6238139;22;20172;-87
2021/10/24 05:00:04;;;;;;;8.63;4.77;;;6.70;99.90;;;;;;6240156;22;20157;-87
2021/10/24 05:02:30;;;;;;;8.13;4.93;;;6.60;99.90;;;;;;6239150;22;20193;-86
2021/10/24 05:04:55;;;;;;;6.23;5.13;;;6.60;99.90;;;;;;6214040;22;20206;-87
2021/10/24 05:07:22;;;;;;;5.00;4.00;;;6.60;99.90;;;;;;6266124;22;20188;-87
2021/10/24 05:09:48;;;;;;;6.33;3.97;;;6.60;99.90;;;;;;6266669;22;20200;-87
2021/10/24 05:12:13;;;;;;;6.73;4.27;;;6.60;99.90;;;;;;6240921;22;20184;-87
2021/10/24 05:14:39;;;;;;;7.60;5.10;;;6.60;99.90;;;;;;6214825;22;20275;-88
2021/10/24 05:17:05;;;;;;;4.83;4.33;;;6.50;99.90;;;;;;6215064;22;20193;-87
2021/10/24 05:19:30;;;;;;;6.83;4.57;;;6.50;99.90;;;;;;6215941;22;20231;-87
2021/10/24 05:21:57;;;;;;;5.13;4.63;;;6.50;99.90;;;;;;6192403;22;20661;-87
2021/10/24 05:24:22;;;;;;;6.67;4.50;;;6.50;99.90;;;;;;6217333;22;20191;-87
2021/10/24 05:26:49;;;;;;;13.00;6.87;;;6.40;99.90;;;;;;6243386;22;20161;-87
2021/10/24 05:29:14;;;;;;;5.70;3.73;;;6.40;99.90;;;;;;6243691;22;20207;-87
2021/10/24 05:31:40;;;;;;;8.70;6.07;;;6.40;99.90;;;;;;6218742;22;20192;-87
2021/10/24 05:34:06;;;;;;;8.50;4.40;;;6.30;99.90;;;;;;6243930;22;20189;-87
2021/10/24 05:36:32;;;;;;;7.73;6.00;;;6.30;99.90;;;;;;6244525;22;20163;-86
2021/10/24 05:38:58;;;;;;;5.23;4.10;;;6.30;99.90;;;;;;6245226;22;20423;-87
2021/10/24 05:41:25;;;;;;;6.97;6.00;;;6.30;99.90;;;;;;6266338;22;20196;-86
2021/10/24 05:43:50;;;;;;;10.30;5.47;;;6.30;99.90;;;;;;6239415;22;20188;-87
2021/10/24 05:46:16;;;;;;;7.60;5.47;;;6.20;99.90;;;;;;6239101;22;20628;-87
2021/10/24 05:48:42;;;;;;;8.17;6.47;;;6.30;99.90;;;;;;6239616;22;20193;-86
2021/10/24 05:51:09;;;;;;;5.47;4.03;;;6.20;99.90;;;;;;6215135;22;20171;-87
2021/10/24 05:53:36;;;;;;;17.90;7.23;;;6.20;99.90;;;;;;6214286;22;20608;-87
2021/10/24 05:56:03;;;;;;;6.93;5.20;;;6.20;99.90;;;;;;6239044;22;20196;-87
2021/10/24 05:58:29;;;;;;;6.03;5.47;;;6.10;99.90;;;;;;6238977;22;20184;-87
2021/10/24 06:00:54;;;;;;;6.43;4.87;;;6.10;99.90;;;;;;6238679;22;20571;-86
2021/10/24 06:03:20;;;;;;;14.53;5.27;;;6.10;99.90;;;;;;6239231;22;20164;-86
2021/10/24 06:05:46;;;;;;;8.73;5.43;;;6.10;99.90;;;;;;6215155;22;20188;-87
2021/10/24 06:08:21;;;;;;;7.03;5.30;;;6.10;99.90;;;;;;6214706;22;20185;-87
2021/10/24 06:10:48;;;;;;;8.60;4.80;;;6.10;99.90;;;;;;6217426;22;20189;-88
2021/10/24 06:13:14;;;;;;;7.57;5.00;;;6.00;99.90;;;;;;6242282;22;20514;-87
2021/10/24 06:15:39;;;;;;;5.30;4.00;;;6.00;99.90;;;;;;6218070;22;20231;-88
2021/10/24 06:18:06;;;;;;;8.80;6.17;;;6.00;99.90;;;;;;6218501;22;20188;-88
2021/10/24 06:20:33;;;;;;;9.67;5.67;;;5.90;99.90;;;;;;6218131;22;20195;-87
2021/10/24 06:22:58;;;;;;;8.20;4.57;;;5.90;99.90;;;;;;6271707;22;20247;-88
2021/10/24 06:25:25;;;;;;;6.00;4.77;;;5.90;99.90;;;;;;6271070;22;20200;-86
2021/10/24 06:27:51;;;;;;;5.90;5.40;;;5.90;99.90;;;;;;6244109;22;20252;-87
2021/10/24 06:30:23;;;;;;;5.67;4.13;;;5.90;99.90;;;;;;6219516;22;20521;-88
2021/10/24 06:32:50;;;;;;;7.97;5.07;;;5.90;99.90;;;;;;6244324;22;20184;-87
2021/10/24 06:35:16;;;;;;;8.83;4.87;;;5.90;99.90;;;;;;6219585;22;20275;-88
2021/10/24 06:37:44;;;;;;;9.67;5.60;;;5.90;99.90;;;;;;6269019;22;20220;-89
2021/10/24 06:40:12;;;;;;;7.37;5.90;;;5.90;99.90;;;;;;6239138;22;20235;-86
2021/10/24 06:42:38;;;;;;;8.57;4.77;;;5.90;99.90;;;;;;6214354;22;20157;-88
2021/10/24 06:45:05;;;;;;;8.90;5.80;;;6.10;99.90;;;;;;6267011;22;20315;-89
2021/10/24 06:47:31;;;;;;;7.93;4.83;;;6.30;99.90;;;;;;6267547;22;20188;-89
2021/10/24 06:49:57;;;;;;;15.23;6.20;;;6.40;99.90;;;;;;6223809;22;20227;-89
2021/10/24 06:52:23;;;;;;;6.23;5.30;;;6.40;99.90;;;;;;6209668;22;20466;-88
2021/10/24 06:54:48;;;;;;;12.57;4.83;;;6.50;99.90;;;;;;6273750;22;20634;-89
2021/10/24 06:57:14;;;;;;;6.20;4.57;;;6.60;99.90;;;;;;6240352;22;20190;-89
2021/10/24 06:59:42;;;;;;;8.27;5.60;;;6.70;99.90;;;;;;6240080;22;20198;-88
2021/10/24 07:02:08;;;;;;;8.57;5.40;;;6.90;99.90;;;;;;6214101;22;20188;-89
2021/10/24 07:04:35;;;;;;;7.37;4.27;;;7.10;99.90;;;;;;6214047;22;20204;-89
2021/10/24 07:07:00;;;;;;;8.13;5.60;;;7.20;99.90;;;;;;6239271;22;20211;-88
2021/10/24 07:09:26;;;;;;;5.17;4.33;;;7.20;99.90;;;;;;6213803;22;20188;-90
2021/10/24 07:11:52;;;;;;;5.47;3.43;;;7.30;99.90;;;;;;6239296;22;20622;-91
2021/10/24 07:14:18;;;;;;;5.73;4.77;;;7.40;99.90;;;;;;6265336;22;20195;-86
2021/10/24 07:16:44;;;;;;;9.00;5.60;;;7.60;99.90;;;;;;6239084;22;20688;-90
2021/10/24 07:19:10;;;;;;;5.53;4.37;;;7.80;99.90;;;;;;6238185;22;20184;-88
2021/10/24 07:21:36;;;;;;;5.30;4.17;;;7.90;99.90;;;;;;6238282;22;20256;-90
2021/10/24 07:24:02;;;;;;;5.57;5.03;;;7.80;99.90;;;;;;6239647;22;20192;-90
2021/10/24 07:26:28;;;;;;;7.50;5.50;;;7.70;99.90;;;;;;6238298;22;20188;-89
2021/10/24 07:28:53;;;;;;;10.50;6.63;;;7.60;99.90;;;;;;6188726;22;20607;-88
2021/10/24 07:31:19;;;;;;;10.73;5.53;;;7.80;99.90;;;;;;6238699;22;20191;-90
2021/10/24 07:33:45;;;;;;;6.77;5.23;;;7.70;99.90;;;;;;6265651;22;20431;-88
2021/10/24 07:36:10;;;;;;;7.07;4.87;;;7.70;99.90;;;;;;6214645;22;20508;-89
2021/10/24 07:38:37;;;;;;;8.90;4.93;;;7.60;99.90;;;;;;6264773;22;20260;-88
2021/10/24 07:41:03;;;;;;;7.40;5.80;;;7.70;99.90;;;;;;6264161;22;20578;-88
2021/10/24 07:43:30;;;;;;;7.77;4.23;;;7.60;99.90;;;;;;6211466;22;20186;-89
2021/10/24 07:45:57;;;;;;;10.13;5.47;;;7.70;99.90;;;;;;6236750;22;20219;-90
2021/10/24 07:48:23;;;;;;;8.27;5.57;;;7.90;99.90;;;;;;6263724;22;20596;-89
2021/10/24 07:50:50;;;;;;;7.57;6.73;;;8.70;99.90;;;;;;6265824;22;20188;-89
2021/10/24 07:53:16;;;;;;;7.73;5.30;;;9.60;99.90;;;;;;6238697;22;20206;-90
2021/10/24 07:55:43;;;;;;;6.80;6.03;;;10.70;99.90;;;;;;6213013;22;20569;-89
2021/10/24 07:58:09;;;;;;;10.30;6.23;;;11.70;99.90;;;;;;6264461;22;20189;-89
2021/10/24 08:00:35;;;;;;;5.57;4.90;;;12.10;99.90;;;;;;6264266;22;20203;-90
2021/10/24 08:03:06;;;;;;;7.33;5.10;;;12.50;99.90;;;;;;6238539;22;20160;-89
2021/10/24 08:05:32;;;;;;;10.97;4.97;;;12.70;99.90;;;;;;6265012;22;20201;-90
2021/10/24 08:08:01;;;;;;;9.03;4.50;;;13.30;99.90;;;;;;6263961;22;20223;-89
2021/10/24 08:10:27;;;;;;;5.70;3.97;;;13.60;99.90;;;;;;6238169;22;20192;-90
2021/10/24 08:12:54;;;;;;;7.20;4.33;;;13.70;99.90;;;;;;6238213;22;20669;-90
2021/10/24 08:15:20;;;;;;;7.03;3.97;;;13.60;99.90;;;;;;6213683;22;20176;-90
2021/10/24 08:17:50;;;;;;;5.93;4.80;;;12.80;99.90;;;;;;6265363;22;20200;-90
2021/10/24 08:20:16;;;;;;;6.37;4.63;;;12.80;99.90;;;;;;6237245;22;20203;-90
2021/10/24 08:22:43;;;;;;;8.37;4.53;;;11.90;99.90;;;;;;6264680;22;20192;-89
2021/10/24 08:25:10;;;;;;;3.93;3.53;;;11.20;99.90;;;;;;6212665;22;20570;-89
2021/10/24 08:27:37;;;;;;;5.07;3.40;;;10.60;99.90;;;;;;6237295;22;20418;-91
2021/10/24 08:30:07;;;;;;;4.43;3.87;;;10.30;99.90;;;;;;6265361;22;20185;-89
2021/10/24 08:32:34;;;;;;;4.87;3.90;;;10.10;99.90;;;;;;6264390;22;20203;-90
2021/10/24 08:35:01;;;;;;;7.60;4.00;;;9.80;99.90;;;;;;6239443;22;20279;-92
2021/10/24 08:37:27;;;;;;;5.10;4.10;;;9.70;99.90;;;;;;6239603;22;20528;-89
2021/10/24 08:39:53;;;;;;;6.23;3.53;;;9.70;99.90;;;;;;6266338;22;20498;-88
2021/10/24 08:42:28;;;;;;;7.20;4.17;;;9.70;99.90;;;;;;6215213;22;20206;-90
2021/10/24 08:44:58;;;;;;;5.47;3.63;;;9.90;99.90;;;;;;6267099;22;20326;-90
2021/10/24 08:47:25;;;;;;;4.47;3.27;;;9.90;99.90;;;;;;6214113;22;20192;-90
2021/10/24 08:49:51;;;;;;;4.27;3.63;;;9.80;99.90;;;;;;6239556;22;20235;-89
2021/10/24 08:52:18;;;;;;;4.13;2.73;;;9.90;99.90;;;;;;6239878;22;20510;-90
2021/10/24 08:54:44;;;;;;;3.87;3.27;;;9.90;99.90;;;;;;6215703;22;20602;-86
2021/10/24 08:57:10;;;;;;;4.37;3.97;;;9.90;99.90;;;;;;6216620;22;20157;-88
2021/10/24 08:59:38;;;;;;;4.57;3.90;;;9.80;99.90;;;;;;6239100;22;20246;-88
2021/10/24 09:02:04;;;;;;;5.07;3.20;;;9.80;99.90;;;;;;6215514;22;20192;-89
2021/10/24 09:04:30;;;;;;;6.07;4.07;;;10.00;99.90;;;;;;6190871;22;20201;-90
2021/10/24 09:06:56;;;;;;;7.30;4.17;;;10.10;99.90;;;;;;6240769;22;20188;-89
2021/10/24 09:09:24;;;;;;;2.67;2.23;;;10.10;99.90;;;;;;6241107;22;20740;-88
2021/10/24 09:11:53;;;;;;;4.93;2.90;;;10.10;99.90;;;;;;6245155;22;20179;-90
2021/10/24 09:14:35;;;;;;;5.20;4.03;;;10.10;99.90;;;;;;6283037;22;20180;-89
2021/10/24 09:17:01;;;;;;;5.73;3.20;;;10.30;99.90;;;;;;6226916;22;20196;-89
2021/10/24 09:19:36;;;;;;;3.03;2.73;;;10.40;99.90;;;;;;6240251;22;20185;-89
2021/10/24 09:22:14;;;;;;;13.33;4.60;;;10.40;99.90;;;;;;6241189;22;20697;-87
2021/10/24 09:25:03;;;;;;;4.57;3.73;;;10.40;99.90;;;;;;6268890;22;20204;-86
2021/10/24 09:27:30;;;;;;;4.17;3.10;;;10.60;99.90;;;;;;6270190;22;20144;-94
2021/10/24 09:30:05;;;;;;;6.43;3.60;;;10.60;99.90;;;;;;6243148;22;20607;-94
2021/10/24 09:33:04;;;;;;;4.50;2.97;;;10.50;99.90;;;;;;6243024;22;20192;-93
2021/10/24 09:36:01;;;;;;;4.37;3.47;;;10.70;99.90;;;;;;6215281;22;20196;-95
2021/10/24 09:38:27;;;;;;;6.50;3.17;;;10.70;99.90;;;;;;6240812;22;20211;-95
2021/10/24 09:40:56;;;;;;;8.67;3.17;;;10.80;99.90;;;;;;6269347;22;21059;-92
2021/10/24 09:43:28;;;;;;;2.87;2.67;;;10.90;99.90;;;;;;6242451;22;20675;-95
2021/10/24 09:45:56;;;;;;;4.53;3.03;;;11.00;99.90;;;;;;6242093;22;20208;-93
2021/10/24 09:48:27;;;;;;;4.83;3.50;;;11.00;99.90;;;;;;6269155;22;20226;-93
2021/10/24 09:50:55;;;;;;;4.03;3.27;;;11.00;99.90;;;;;;6269959;22;20148;-95
2021/10/24 09:53:22;;;;;;;4.90;3.77;;;11.00;99.90;;;;;;6242984;22;20197;-93
2021/10/24 09:56:00;;;;;;;4.20;3.03;;;11.10;99.90;;;;;;6269247;22;20192;-92
2021/10/24 09:58:47;;;;;;;5.33;3.50;;;11.20;99.90;;;;;;6242376;22;20627;-94
2021/10/24 10:01:19;;;;;;;4.57;4.17;;;11.20;99.90;;;;;;6242066;22;20246;-94
2021/10/24 10:03:49;;;;;;;10.43;3.00;;;11.30;99.90;;;;;;6242391;22;20196;-93
2021/10/24 10:06:19;;;;;;;5.20;2.70;;;11.30;99.90;;;;;;6242787;22;20259;-93
2021/10/24 10:08:45;;;;;;;6.63;2.93;;;11.30;99.90;;;;;;6241626;22;20200;-92
2021/10/24 10:11:36;;;;;;;4.20;3.40;;;11.40;99.90;;;;;;6217005;22;20192;-93
2021/10/24 10:14:21;;;;;;;4.53;3.70;;;11.60;99.90;;;;;;6224307;22;20262;-91
2021/10/24 10:17:11;;;;;;;4.00;2.30;;;11.60;99.90;;;;;;6266110;22;20199;-89
2021/10/24 10:19:40;;;;;;;6.23;2.77;;;11.60;99.90;;;;;;6234689;22;20984;-90
2021/10/24 10:22:26;;;;;;;3.70;2.30;;;11.70;99.90;;;;;;6236427;22;20185;-88
2021/10/24 10:25:05;;;;;;;4.13;2.73;;;11.70;99.90;;;;;;6237888;22;20205;-88
2021/10/24 10:27:38;;;;;;;3.33;2.47;;;11.80;99.90;;;;;;6240557;22;20155;-90
2021/10/24 10:30:15;;;;;;;3.77;3.40;;;11.90;99.90;;;;;;6241980;22;20145;-90
2021/10/24 10:32:46;;;;;;;4.23;2.50;;;12.00;99.90;;;;;;6241661;22;20196;-89
2021/10/24 10:35:13;;;;;;;4.23;2.33;;;12.10;99.90;;;;;;6240560;22;20203;-89
2021/10/24 10:37:57;;;;;;;3.30;2.33;;;12.20;99.90;;;;;;6268015;22;20196;-90
2021/10/24 10:40:35;;;;;;;2.23;1.83;;;12.50;99.90;;;;;;6267028;22;20307;-90
2021/10/24 10:43:18;;;;;;;4.70;2.57;;;12.90;99.90;;;;;;6241188;22;20242;-88
2021/10/24 10:45:53;;;;;;;4.93;3.47;;;13.40;99.90;;;;;;6240568;22;20207;-90
2021/10/24 10:48:46;;;;;;;5.23;3.20;;;13.80;99.90;;;;;;6268253;22;20155;-92
2021/10/24 10:51:25;;;;;;;4.27;3.00;;;14.30;99.90;;;;;;6261727;22;20169;-90
2021/10/24 10:53:56;;;;;;;4.10;2.83;;;14.70;99.90;;;;;;6242019;22;20179;-90
2021/10/24 10:56:49;;;;;;;3.67;2.77;;;15.70;99.90;;;;;;6214614;22;20192;-91
2021/10/24 10:59:33;;;;;;;5.43;2.73;;;16.40;99.90;;;;;;6267299;22;20196;-89
2021/10/24 11:02:19;;;;;;;5.40;4.07;;;16.70;99.90;;;;;;6267388;22;20192;-88
2021/10/24 11:04:54;;;;;;;3.70;2.67;;;16.80;99.90;;;;;;6240020;22;20201;-88
2021/10/24 11:07:34;;;;;;;5.40;2.90;;;16.60;99.90;;;;;;6240205;22;20183;-89
2021/10/24 11:10:00;;;;;;;3.70;2.77;;;16.70;99.90;;;;;;6267183;22;20204;-89
2021/10/24 11:12:46;;;;;;;4.27;3.17;;;16.60;99.90;;;;;;6212071;22;20160;-89
2021/10/24 11:15:18;;;;;;;3.93;2.90;;;16.80;99.90;;;;;;6238268;22;20159;-92
2021/10/24 11:17:49;;;;;;;4.63;3.17;;;16.80;99.90;;;;;;6227253;22;20188;-89
2021/10/24 11:20:23;;;;;;;5.07;2.93;;;16.30;99.90;;;;;;6237822;22;20193;-88
2021/10/24 11:22:55;;;;;;;5.80;3.20;;;16.60;99.90;;;;;;6237451;22;20151;-90
2021/10/24 11:25:27;;;;;;;5.97;3.10;;;16.90;99.90;;;;;;6267740;22;20311;-91
2021/10/24 11:27:53;;;;;;;3.57;2.70;;;17.30;99.90;;;;;;6240335;22;20201;-90
2021/10/24 11:30:19;;;;;;;6.33;3.10;;;17.30;99.90;;;;;;6241061;22;20245;-91
2021/10/24 11:32:52;;;;;;;3.53;2.60;;;16.60;99.90;;;;;;6265738;22;20197;-90
2021/10/24 11:35:19;;;;;;;5.10;2.90;;;17.00;99.90;;;;;;6236750;22;20623;-90
2021/10/24 11:37:51;;;;;;;4.37;3.30;;;16.90;99.90;;;;;;6215506;22;20156;-88
2021/10/24 11:40:32;;;;;;;4.40;3.00;;;16.70;99.90;;;;;;6247659;22;20172;-92
2021/10/24 11:43:04;;;;;;;3.67;2.63;;;16.60;99.90;;;;;;6261618;22;20402;-89
2021/10/24 11:45:51;;;;;;;4.93;3.23;;;16.30;99.90;;;;;;6269636;22;20232;-90
2021/10/24 11:48:25;;;;;;;4.37;2.83;;;15.60;99.90;;;;;;6239807;22;20200;-90
2021/10/24 11:51:05;;;;;;;3.17;2.73;;;16.20;99.90;;;;;;6215395;22;20192;-90
2021/10/24 11:53:42;;;;;;;4.47;3.27;;;16.80;99.90;;;;;;6265585;22;20195;-89
2021/10/24 11:59:17;;;;;;;2.73;2.43;;;16.40;99.90;;;;;;6267096;22;20192;-91
2021/10/24 12:01:43;;;;;;;6.57;2.83;;;16.10;99.90;;;;;;6221657;22;21024;-91
2021/10/24 12:04:12;;;;;;;3.33;2.50;;;16.30;99.90;;;;;;6191451;22;20192;-90
2021/10/24 12:06:50;;;;;;;4.50;2.30;;;16.00;99.90;;;;;;6240878;22;20908;-93
2021/10/24 12:09:38;;;;;;;6.27;2.27;;;16.00;99.90;;;;;;6218187;22;20219;-91
2021/10/24 12:12:26;;;;;;;3.50;2.30;;;15.50;99.90;;;;;;6244038;22;20232;-90
2021/10/24 12:14:59;;;;;;;3.00;2.40;;;15.00;99.90;;;;;;6243398;22;20196;-92
2021/10/24 12:17:37;;;;;;;5.47;2.10;;;15.20;99.90;;;;;;6242844;22;20222;-93
2021/10/24 12:20:20;;;;;;;4.07;2.50;;;14.90;99.90;;;;;;6216896;22;20192;-92
2021/10/24 12:22:58;;;;;;;3.50;2.03;;;14.80;99.90;;;;;;6216704;22;20210;-91
2021/10/24 12:25:41;;;;;;;2.37;1.87;;;14.80;99.90;;;;;;6269710;22;20234;-92
2021/10/24 12:28:42;;;;;;;2.67;1.80;;;14.60;99.90;;;;;;6270072;22;20177;-93
2021/10/24 12:31:25;;;;;;;5.70;2.00;;;14.60;99.90;;;;;;6242875;22;20545;-92
2021/10/24 12:33:50;;;;;;;4.37;2.60;;;14.10;99.90;;;;;;6269160;22;20203;-91
2021/10/24 12:36:34;;;;;;;2.87;2.30;;;14.00;99.90;;;;;;6191974;22;20220;-91
2021/10/24 12:39:02;;;;;;;3.13;2.37;;;14.10;99.90;;;;;;6191624;22;20635;-90
2021/10/24 12:41:40;;;;;;;2.57;2.37;;;14.20;99.90;;;;;;6241573;22;20188;-92
2021/10/24 12:44:14;;;;;;;3.80;2.27;;;14.00;99.90;;;;;;6268828;22;20278;-93
2021/10/24 12:46:41;;;;;;;4.00;2.40;;;13.70;99.90;;;;;;6268862;22;20307;-93
2021/10/24 12:49:17;;;;;;;8.23;2.50;;;13.70;99.90;;;;;;6243067;22;20231;-92
2021/10/24 12:51:45;;;;;;;6.57;2.90;;;13.80;99.90;;;;;;6269219;22;20215;-93
2021/10/24 12:54:12;;;;;;;7.63;2.40;;;13.60;99.90;;;;;;6242179;22;20304;-92
2021/10/24 12:56:40;;;;;;;2.97;1.90;;;13.40;99.90;;;;;;6216908;22;20192;-92
2021/10/24 12:59:07;;;;;;;5.13;2.90;;;13.30;99.90;;;;;;6217801;22;20539;-93
2021/10/24 13:01:34;;;;;;;2.13;1.73;;;13.30;99.90;;;;;;6242807;22;20389;-91
2021/10/24 13:04:02;;;;;;;3.40;1.80;;;13.20;99.90;;;;;;6242679;22;20270;-92
2021/10/24 13:06:29;;;;;;;3.70;1.57;;;13.20;99.90;;;;;;6242397;22;20197;-92